createdAt,value
2023-06-28T00:03:39.020Z,2.10
2023-06-28T00:08:42.070Z,2.00
2023-06-28T00:13:44.518Z,2.10
2023-06-28T00:18:47.040Z,2.00
2023-06-28T00:23:50.887Z,2.10
2023-06-28T00:28:53.462Z,2.30
2023-06-28T00:33:55.849Z,2.10
2023-06-28T00:38:59.299Z,1.90
2023-06-28T00:44:01.927Z,2.10
2023-06-28T00:49:05.566Z,1.60
2023-06-28T00:54:08.153Z,2.40
2023-06-28T00:59:11.495Z,1.80
2023-06-28T01:04:14.926Z,2.10
2023-06-28T01:09:17.697Z,2.20
2023-06-28T01:14:21.377Z,2.40
2023-06-28T01:19:28.833Z,2.40
2023-06-28T01:24:32.260Z,2.60
2023-06-28T01:29:35.330Z,2.10
2023-06-28T01:34:37.776Z,2.40
2023-06-28T01:39:40.832Z,2.10
2023-06-28T01:44:43.494Z,2.20
2023-06-28T01:49:47.241Z,2.50
2023-06-28T01:54:50.751Z,2.40
2023-06-28T01:59:53.273Z,2.20
2023-06-28T02:04:55.831Z,1.90
2023-06-28T02:09:58.645Z,2.00
2023-06-28T02:15:05.153Z,2.20
2023-06-28T02:20:11.651Z,2.90
2023-06-28T02:25:14.196Z,2.80
2023-06-28T02:30:16.762Z,2.70
2023-06-28T02:35:19.747Z,2.60
2023-06-28T02:40:22.636Z,2.80
2023-06-28T02:50:27.423Z,2.30
2023-06-28T02:55:30.035Z,2.70
2023-06-28T03:00:32.706Z,3.00
2023-06-28T03:05:35.388Z,2.70
2023-06-28T03:10:38.040Z,2.40
2023-06-28T03:15:40.700Z,2.40
2023-06-28T03:20:43.654Z,3.00
2023-06-28T03:25:46.403Z,2.40
2023-06-28T03:35:51.676Z,2.70
2023-06-28T03:40:54.282Z,2.40
2023-06-28T03:45:56.879Z,2.60
2023-06-28T03:50:59.536Z,2.90
2023-06-28T04:01:04.783Z,2.50
2023-06-28T04:06:07.212Z,3.10
2023-06-28T04:11:09.692Z,2.60
2023-06-28T04:16:12.829Z,2.60
2023-06-28T04:21:15.290Z,2.20
2023-06-28T04:26:18.087Z,2.50
2023-06-28T04:31:21.010Z,2.60
2023-06-28T04:36:24.180Z,2.90
2023-06-28T04:41:27.514Z,3.10
2023-06-28T04:46:30.199Z,3.20
2023-06-28T04:51:32.787Z,2.90
2023-06-28T04:56:35.256Z,3.20
2023-06-28T05:01:38.689Z,2.80
2023-06-28T05:06:41.432Z,3.20
2023-06-28T05:11:44.593Z,2.80
2023-06-28T05:16:47.685Z,3.10
2023-06-28T05:21:50.738Z,3.10
2023-06-28T05:26:53.373Z,3.00
2023-06-28T05:31:56.146Z,3.00
2023-06-28T05:36:58.621Z,3.00
2023-06-28T05:42:01.168Z,3.10
2023-06-28T05:47:04.010Z,3.00
2023-06-28T05:52:07.521Z,3.40
2023-06-28T05:57:10.818Z,4.00
2023-06-28T06:02:13.340Z,3.40
2023-06-28T06:07:15.979Z,3.40
2023-06-28T06:12:22.375Z,3.80
2023-06-28T06:17:24.905Z,3.60
2023-06-28T06:22:27.706Z,3.60
2023-06-28T06:27:30.368Z,3.70
2023-06-28T06:32:32.814Z,3.10
2023-06-28T06:37:35.223Z,3.20
2023-06-28T06:42:38.354Z,2.80
2023-06-28T06:47:41.250Z,3.50
2023-06-28T06:52:43.765Z,3.10
2023-06-28T06:57:46.464Z,3.50
2023-06-28T07:02:49.242Z,2.70
2023-06-28T07:07:51.749Z,2.80
2023-06-28T07:12:54.377Z,2.60
2023-06-28T07:17:57.010Z,3.10
2023-06-28T07:23:00.122Z,2.80
2023-06-28T07:33:06.072Z,2.40
2023-06-28T07:38:08.884Z,2.60
2023-06-28T07:43:11.404Z,2.40
2023-06-28T07:48:13.958Z,2.70
2023-06-28T07:53:16.422Z,2.70
2023-06-28T07:58:19.338Z,2.40
2023-06-28T08:03:23.408Z,12.00
2023-06-28T08:08:25.906Z,72.60
2023-06-28T08:13:28.318Z,104.60
